Time;durP1;ratioP1;P1;durP2;ratioP2;P2;SDS_P1;SDS_P2;PMS_P1;PMS_P2;Temp;Humidity;BMP_temperature;BMP_pressure;BME280_temperature;BME280_humidity;BME280_pressure;Samples;Min_cycle;Max_cycle;Signal;HPM_P1;HPM_P2
2023/12/11 00:02:01;;;;;;;15.18;5.32;;;;;;;9.87;100.00;99218.97;6064163;23;20118;-73
2023/12/11 00:04:27;;;;;;;12.68;4.93;;;;;;;9.51;100.00;99166.50;6046904;23;20022;-71
2023/12/11 00:06:54;;;;;;;4.57;4.25;;;;;;;9.74;100.00;99212.00;6080621;23;20033;-70
2023/12/11 00:09:21;;;;;;;5.35;5.05;;;;;;;9.64;100.00;99212.78;6049110;23;20145;-73
2023/12/11 00:11:47;;;;;;;5.53;5.13;;;;;;;9.83;100.00;99228.84;6077545;23;20022;-72
2023/12/11 00:14:13;;;;;;;6.95;6.47;;;;;;;9.81;100.00;99224.66;6048983;23;20350;-71
2023/12/11 00:16:40;;;;;;;5.93;5.03;;;;;;;9.94;100.00;99239.38;6080969;23;20030;-72
2023/12/11 00:19:06;;;;;;;7.63;6.15;;;;;;;9.92;100.00;99220.31;6048968;23;20494;-71
2023/12/11 00:21:34;;;;;;;5.38;5.07;;;;;;;9.96;100.00;99219.13;6081485;23;20097;-72
2023/12/11 00:24:01;;;;;;;4.78;4.50;;;;;;;9.99;100.00;99232.00;6054121;23;20370;-71
2023/12/11 00:26:27;;;;;;;5.53;5.03;;;;;;;10.00;100.00;99201.38;6077586;23;20022;-72
2023/12/11 00:28:54;;;;;;;4.43;4.13;;;;;;;9.92;100.00;99208.97;6051645;23;20523;-71
2023/12/11 00:31:21;;;;;;;4.60;4.40;;;;;;;9.70;100.00;99165.16;6074509;23;20460;-72
2023/12/11 00:33:47;;;;;;;4.47;4.25;;;;;;;9.84;100.00;99192.97;6050708;23;20209;-72
2023/12/11 00:36:14;;;;;;;4.80;4.50;;;;;;;9.79;100.00;99193.31;6083356;23;20030;-72
2023/12/11 00:38:40;;;;;;;5.47;4.93;;;;;;;9.75;100.00;99197.13;6046068;23;20017;-72
2023/12/11 00:41:07;;;;;;;6.28;5.88;;;;;;;9.76;100.00;99198.78;6080535;23;20049;-71
2023/12/11 00:43:34;;;;;;;5.32;4.88;;;;;;;9.69;100.00;99210.66;6046970;23;20030;-72
2023/12/11 00:46:16;;;;;;;4.90;4.50;;;;;;;9.64;100.00;99216.25;6082366;23;20009;-71
2023/12/11 00:48:42;;;;;;;14.80;5.38;;;;;;;8.80;100.00;99089.59;6053831;23;20022;-72
2023/12/11 00:51:20;;;;;;;8.27;5.97;;;;;;;9.54;100.00;99218.69;6073080;23;20471;-72
2023/12/11 00:53:47;;;;;;;5.70;5.13;;;;;;;9.67;100.00;99236.97;6053794;23;20014;-71
2023/12/11 00:56:14;;;;;;;10.10;5.05;;;;;;;9.77;100.00;99237.13;6080256;23;20022;-72
2023/12/11 00:58:41;;;;;;;7.63;4.85;;;;;;;9.26;100.00;99136.03;6053634;23;20022;-72
2023/12/11 01:01:07;;;;;;;12.18;5.47;;;;;;;9.85;100.00;99200.75;6079986;23;20088;-71
2023/12/11 01:03:37;;;;;;;7.15;5.07;;;;;;;9.27;100.00;99089.75;6054978;23;20037;-72
2023/12/11 01:06:05;;;;;;;5.82;4.88;;;;;;;9.76;100.00;99183.91;6086143;23;20578;-72
2023/12/11 01:08:34;;;;;;;5.47;4.97;;;;;;;8.99;100.00;99058.53;6055782;23;20105;-72
2023/12/11 01:11:01;;;;;;;8.57;5.85;;;;;;;9.62;100.00;99196.31;6061731;23;20034;-72
2023/12/11 01:13:27;;;;;;;5.13;4.18;;;;;;;9.38;100.00;99166.56;6066763;23;20025;-72
2023/12/11 01:15:56;;;;;;;6.97;5.32;;;;;;;9.29;100.00;99116.66;6081238;23;20189;-72
2023/12/11 01:18:23;;;;;;;4.80;4.40;;;;;;;9.85;100.00;99174.53;6040651;23;20397;-72
2023/12/11 01:20:50;;;;;;;6.32;4.72;;;;;;;9.51;100.00;99093.19;6075944;23;20034;-72
2023/12/11 01:23:17;;;;;;;4.40;4.20;;;;;;;9.31;100.00;99060.63;6043036;23;20030;-71
2023/12/11 01:25:44;;;;;;;5.05;4.82;;;;;;;10.11;100.00;99159.50;6070420;23;20182;-73
2023/12/11 01:28:10;;;;;;;4.60;4.18;;;;;;;8.81;100.00;98930.88;6050402;23;20114;-71
2023/12/11 01:30:37;;;;;;;5.85;5.18;;;;;;;9.66;100.00;99100.84;6075244;23;20013;-72
2023/12/11 01:33:03;;;;;;;8.25;7.05;;;;;;;9.83;100.00;99131.88;6045247;23;20485;-72
2023/12/11 01:35:33;;;;;;;13.77;4.63;;;;;;;9.85;100.00;99116.06;6062623;23;20118;-72
2023/12/11 01:38:00;;;;;;;6.55;6.05;;;;;;;9.86;100.00;99105.47;6050405;23;20038;-72
2023/12/11 01:40:26;;;;;;;4.20;4.00;;;;;;;9.66;100.00;99053.72;6052160;23;20037;-72
2023/12/11 01:42:53;;;;;;;7.40;3.95;;;;;;;10.26;100.00;99080.63;6039202;23;20090;-70
2023/12/11 01:45:36;;;;;;;10.32;5.55;;;;;;;10.11;100.00;99017.13;6078421;23;20041;-72
2023/12/11 01:48:03;;;;;;;4.18;3.88;;;;;;;10.14;100.00;99074.53;6028229;23;20078;-73
2023/12/11 01:50:29;;;;;;;5.53;4.55;;;;;;;10.17;100.00;99092.66;6074324;23;20025;-71
2023/12/11 01:52:56;;;;;;;6.47;4.55;;;;;;;9.68;100.00;98981.94;6025379;23;20036;-70
2023/12/11 01:55:23;;;;;;;11.75;5.78;;;;;;;10.26;100.00;99070.13;6066117;23;20109;-71
2023/12/11 01:57:49;;;;;;;9.90;4.97;;;;;;;10.07;100.00;99047.97;6053255;23;20040;-74
2023/12/11 02:00:16;;;;;;;4.80;4.43;;;;;;;10.22;100.00;99072.16;6076836;23;20030;-72
2023/12/11 02:02:43;;;;;;;7.72;5.15;;;;;;;10.21;100.00;99078.38;6045831;23;20050;-74
2023/12/11 02:05:09;;;;;;;5.85;5.55;;;;;;;10.31;100.00;99068.03;6082991;23;20053;-72
2023/12/11 02:07:38;;;;;;;8.00;4.47;;;;;;;10.37;100.00;99047.41;6049875;23;20028;-74
2023/12/11 02:10:06;;;;;;;4.70;4.43;;;;;;;10.34;100.00;99020.59;6079519;23;20342;-73
2023/12/11 02:12:32;;;;;;;5.57;4.47;;;;;;;9.92;100.00;98952.19;6051680;23;20042;-73
2023/12/11 02:14:59;;;;;;;7.18;6.53;;;;;;;10.30;100.00;98977.22;6070785;23;20030;-74
2023/12/11 02:17:25;;;;;;;5.30;4.90;;;;;;;10.02;100.00;98932.16;6049000;23;20527;-72
2023/12/11 02:19:52;;;;;;;6.15;5.43;;;;;;;9.12;100.00;98783.72;6074364;23;20038;-73
2023/12/11 02:22:19;;;;;;;3.95;3.80;;;;;;;10.32;100.00;98968.28;6052657;23;20037;-73
2023/12/11 02:24:49;;;;;;;6.03;4.35;;;;;;;10.12;100.00;98950.63;6080091;23;20033;-73
2023/12/11 02:27:16;;;;;;;13.20;6.25;;;;;;;10.24;100.00;98968.00;6045358;23;20022;-70
2023/12/11 02:29:42;;;;;;;4.80;4.50;;;;;;;10.30;100.00;98954.47;6022883;23;20029;-71
2023/12/11 02:32:08;;;;;;;5.68;5.28;;;;;;;9.90;100.00;98899.06;6071640;23;20030;-71
2023/12/11 02:34:35;;;;;;;10.35;5.13;;;;;;;10.24;100.00;98949.66;6049275;23;20465;-72
2023/12/11 02:37:01;;;;;;;20.35;5.68;;;;;;;10.23;100.00;98937.50;6073478;23;20034;-71
2023/12/11 02:39:28;;;;;;;5.53;4.25;;;;;;;10.26;100.00;98931.19;6047670;23;20034;-73
2023/12/11 02:41:54;;;;;;;5.65;4.55;;;;;;;10.15;100.00;98932.03;6066767;23;20468;-71
2023/12/11 02:44:23;;;;;;;4.60;4.20;;;;;;;9.74;100.00;98887.16;6047232;23;20050;-72
2023/12/11 02:46:50;;;;;;;4.82;4.50;;;;;;;9.82;100.00;98925.84;6069802;23;20026;-72
2023/12/11 02:49:16;;;;;;;10.27;4.30;;;;;;;10.23;100.00;98963.72;6042118;23;20064;-72
2023/12/11 02:51:43;;;;;;;4.95;4.55;;;;;;;10.10;100.00;98939.44;6076730;23;20095;-71
2023/12/11 02:54:09;;;;;;;4.28;4.05;;;;;;;10.05;100.00;98938.97;6049928;23;20579;-72
2023/12/11 02:56:42;;;;;;;8.70;4.55;;;;;;;9.80;100.00;98917.28;6053352;23;20025;-71
2023/12/11 02:59:08;;;;;;;;;;;;;;;10.10;100.00;98965.63;6048768;23;20519;-71
2023/12/11 03:01:38;;;;;;;21.13;4.63;;;;;;;10.06;100.00;98953.72;6075314;23;19909;-72
2023/12/11 03:04:06;;;;;;;21.25;6.32;;;;;;;10.06;100.00;98938.81;6051255;23;20026;-72
2023/12/11 03:06:32;;;;;;;6.55;4.68;;;;;;;10.18;100.00;98934.41;6079058;23;20026;-72
2023/12/11 03:09:02;;;;;;;6.38;5.53;;;;;;;10.33;100.00;98907.00;6020528;23;20084;-72
2023/12/11 03:11:29;;;;;;;6.28;4.75;;;;;;;10.28;100.00;98871.59;6077987;23;20375;-71
2023/12/11 03:13:55;;;;;;;5.07;4.70;;;;;;;10.24;100.00;98872.81;6047137;23;20021;-72
2023/12/11 03:16:22;;;;;;;6.80;4.22;;;;;;;9.65;100.00;98748.25;6081311;23;20126;-71
2023/12/11 03:18:48;;;;;;;4.63;4.35;;;;;;;9.97;100.00;98753.50;6054366;23;20156;-74
2023/12/11 03:21:15;;;;;;;4.28;4.00;;;;;;;10.33;100.00;98791.66;6051977;23;20042;-71
2023/12/11 03:23:41;;;;;;;4.53;4.32;;;;;;;9.57;100.00;98701.69;6026779;23;20065;-71
2023/12/11 03:26:08;;;;;;;6.47;4.65;;;;;;;10.18;100.00;98817.31;6053933;23;20222;-71
2023/12/11 03:28:37;;;;;;;5.72;4.95;;;;;;;10.19;100.00;98833.84;6049979;23;20097;-74
2023/12/11 03:31:03;;;;;;;5.63;5.28;;;;;;;10.38;100.00;98828.84;6056865;23;20149;-71
2023/12/11 03:33:30;;;;;;;5.18;4.78;;;;;;;9.85;100.00;98670.66;6041902;23;20021;-72
2023/12/11 03:35:57;;;;;;;4.57;4.28;;;;;;;9.16;100.00;98533.94;6087659;23;20022;-72
2023/12/11 03:38:23;;;;;;;4.40;4.20;;;;;;;10.47;100.00;98750.34;6050162;23;20462;-71
2023/12/11 03:40:50;;;;;;;6.95;4.60;;;;;;;10.04;100.00;98696.19;6083155;23;20034;-72
2023/12/11 03:43:16;;;;;;;8.60;5.00;;;;;;;9.98;100.00;98692.25;6038030;23;20097;-73
2023/12/11 03:45:43;;;;;;;4.35;4.15;;;;;;;9.55;100.00;98662.53;6077453;23;20692;-72
2023/12/11 03:48:10;;;;;;;4.45;4.25;;;;;;;10.00;100.00;98716.56;6044061;23;20244;-72
2023/12/11 03:50:37;;;;;;;4.90;4.60;;;;;;;10.11;100.00;98768.13;6077095;23;20846;-72
2023/12/11 03:53:03;;;;;;;6.65;5.95;;;;;;;10.11;100.00;98773.34;6050951;23;20097;-72
2023/12/11 03:55:29;;;;;;;5.93;4.63;;;;;;;9.96;100.00;98741.34;6079203;23;20018;-72
2023/12/11 03:57:56;;;;;;;4.28;4.07;;;;;;;9.99;100.00;98741.13;6028437;23;20034;-72
2023/12/11 04:00:22;;;;;;;6.25;5.03;;;;;;;10.38;100.00;98755.41;6079902;23;20073;-72
2023/12/11 04:02:49;;;;;;;7.75;5.15;;;;;;;9.32;100.00;98530.06;6022796;23;20050;-72
2023/12/11 04:05:15;;;;;;;5.43;5.00;;;;;;;10.47;100.00;98711.03;6082101;23;20166;-72
2023/12/11 04:07:42;;;;;;;3.92;3.72;;;;;;;10.35;100.00;98684.84;6053169;23;20031;-72
2023/12/11 04:10:09;;;;;;;4.75;4.30;;;;;;;10.56;100.00;98691.88;6078982;23;20091;-72
2023/12/11 04:12:35;;;;;;;4.57;4.30;;;;;;;10.12;100.00;98639.56;6052250;23;20155;-71
2023/12/11 04:15:02;;;;;;;9.23;6.35;;;;;;;9.82;100.00;98621.94;6074875;23;20022;-74
2023/12/11 04:17:29;;;;;;;4.70;4.30;;;;;;;9.58;100.00;98611.69;6051798;23;20393;-73
2023/12/11 04:19:57;;;;;;;7.20;5.03;;;;;;;10.33;100.00;98731.34;6073140;23;20033;-71
2023/12/11 04:22:24;;;;;;;6.32;5.20;;;;;;;9.65;100.00;98610.25;6054140;23;20097;-71
2023/12/11 04:24:50;;;;;;;5.05;4.65;;;;;;;10.24;100.00;98715.50;6077823;23;20032;-72
2023/12/11 04:27:17;;;;;;;7.95;4.93;;;;;;;10.26;100.00;98727.53;6046788;23;20018;-74
2023/12/11 04:29:43;;;;;;;4.30;4.10;;;;;;;10.27;100.00;98717.88;6082081;23;20132;-73
2023/12/11 04:32:10;;;;;;;6.47;4.25;;;;;;;10.04;100.00;98669.97;6054659;23;20022;-73
2023/12/11 04:34:36;;;;;;;5.18;4.68;;;;;;;10.03;100.00;98710.25;6080365;23;20026;-73
2023/12/11 04:37:03;;;;;;;5.90;5.50;;;;;;;10.27;100.00;98755.41;6043646;23;20127;-74
2023/12/11 04:39:29;;;;;;;4.78;4.30;;;;;;;10.48;100.00;98734.47;6079126;23;20500;-73
2023/12/11 04:41:55;;;;;;;7.25;4.97;;;;;;;10.51;100.00;98692.28;6050939;23;20198;-72
2023/12/11 04:44:22;;;;;;;4.43;4.22;;;;;;;10.03;100.00;98647.38;6076792;23;20722;-73
2023/12/11 04:46:48;;;;;;;4.97;4.68;;;;;;;10.50;100.00;98747.47;6051077;23;20281;-72
2023/12/11 04:49:15;;;;;;;7.07;5.00;;;;;;;10.43;100.00;98773.38;6075817;23;20081;-73
2023/12/11 04:51:41;;;;;;;4.63;4.43;;;;;;;10.36;100.00;98895.44;6052776;23;20035;-74
2023/12/11 04:54:08;;;;;;;4.50;4.30;;;;;;;9.85;100.00;98920.38;6056735;23;20026;-73
2023/12/11 04:56:36;;;;;;;4.85;4.47;;;;;;;10.25;100.00;98995.06;6051834;23;20037;-74
2023/12/11 04:59:02;;;;;;;12.20;5.93;;;;;;;9.24;100.00;98872.72;6064759;23;20042;-73
2023/12/11 05:01:29;;;;;;;5.15;4.75;;;;;;;10.04;100.00;99048.19;6043235;23;20018;-74
2023/12/11 05:03:55;;;;;;;12.05;6.15;;;;;;;10.05;100.00;99096.22;6063827;23;20045;-73
2023/12/11 05:06:22;;;;;;;4.57;4.18;;;;;;;10.03;100.00;99113.84;6054725;23;20034;-74
2023/12/11 05:08:48;;;;;;;5.03;4.63;;;;;;;10.06;100.00;99106.56;6074310;23;20435;-73
2023/12/11 05:11:15;;;;;;;4.65;4.30;;;;;;;10.07;100.00;99136.25;6026655;23;20045;-73
2023/12/11 05:13:41;;;;;;;4.85;4.40;;;;;;;9.71;100.00;99088.28;6058503;23;20454;-73
2023/12/11 05:16:08;;;;;;;5.20;4.80;;;;;;;9.61;100.00;99085.50;6055434;23;20038;-73
2023/12/11 05:18:36;;;;;;;5.18;4.47;;;;;;;9.92;100.00;99117.25;6081219;23;20363;-73
2023/12/11 05:21:09;;;;;;;6.82;6.15;;;;;;;9.28;100.00;99028.59;6050802;23;20056;-72
2023/12/11 05:23:36;;;;;;;5.00;4.28;;;;;;;8.95;100.00;98991.69;6079707;23;20096;-73
2023/12/11 05:26:03;;;;;;;5.18;4.82;;;;;;;9.71;100.00;99143.28;6051256;23;20042;-72
2023/12/11 05:28:30;;;;;;;8.00;4.32;;;;;;;9.75;100.00;99142.09;6083696;23;20064;-73
2023/12/11 05:30:56;;;;;;;5.80;5.40;;;;;;;9.72;100.00;99134.47;6056510;23;20053;-73
2023/12/11 05:33:23;;;;;;;4.65;4.30;;;;;;;9.35;100.00;99090.03;6074437;23;20101;-72
2023/12/11 05:35:49;;;;;;;4.72;4.43;;;;;;;9.02;100.00;99057.50;6056629;23;20077;-73
2023/12/11 05:38:15;;;;;;;4.28;3.97;;;;;;;9.62;100.00;99157.88;6078117;23;20246;-72
2023/12/11 05:40:42;;;;;;;4.05;3.78;;;;;;;9.50;100.00;99156.16;6029407;23;20066;-70
2023/12/11 05:43:09;;;;;;;6.20;5.75;;;;;;;9.54;100.00;99166.31;6075906;23;20476;-73
2023/12/11 05:45:35;;;;;;;4.10;3.90;;;;;;;9.39;100.00;99147.28;6055920;23;20415;-73
2023/12/11 05:48:02;;;;;;;4.43;4.22;;;;;;;8.95;100.00;99095.50;6077325;23;20037;-72
2023/12/11 05:50:28;;;;;;;4.40;4.00;;;;;;;9.25;100.00;99164.94;6040187;23;20022;-73
2023/12/11 05:52:58;;;;;;;5.07;4.80;;;;;;;8.91;100.00;99151.63;6075637;23;20025;-73
2023/12/11 05:55:24;;;;;;;4.80;3.90;;;;;;;8.96;100.00;99192.22;6046462;23;20018;-73
2023/12/11 05:57:51;;;;;;;3.90;3.70;;;;;;;8.95;100.00;99215.88;6079724;23;20422;-72
2023/12/11 06:00:18;;;;;;;4.53;4.18;;;;;;;8.75;100.00;99196.31;6051497;23;20033;-71
2023/12/11 06:02:44;;;;;;;5.43;4.35;;;;;;;8.42;100.00;99181.13;6065881;23;20050;-71
2023/12/11 06:05:11;;;;;;;6.05;5.60;;;;;;;8.84;100.00;99255.88;6047704;23;20030;-71
2023/12/11 06:07:37;;;;;;;4.03;3.83;;;;;;;8.46;100.00;99193.91;6060547;23;20038;-72
2023/12/11 06:10:05;;;;;;;16.38;4.20;;;;;;;8.65;100.00;99190.03;6025911;23;20507;-74
2023/12/11 06:12:32;;;;;;;4.43;4.22;;;;;;;8.26;100.00;99113.34;6080792;23;20051;-71
2023/12/11 06:14:58;;;;;;;5.60;5.35;;;;;;;8.51;100.00;99157.00;6044489;23;20026;-72
2023/12/11 06:17:25;;;;;;;4.22;4.03;;;;;;;9.01;100.00;99231.16;6078383;23;20085;-71
2023/12/11 06:19:51;;;;;;;4.20;4.00;;;;;;;9.14;100.00;99263.38;6042229;23;20042;-71
2023/12/11 06:22:18;;;;;;;6.65;5.05;;;;;;;9.17;100.00;99210.81;6052688;23;20033;-71
2023/12/11 06:24:45;;;;;;;8.02;4.97;;;;;;;8.93;100.00;99173.28;6049431;23;20025;-71
2023/12/11 06:27:12;;;;;;;5.55;5.25;;;;;;;9.13;100.00;99198.88;6069713;23;20037;-71
2023/12/11 06:29:39;;;;;;;3.80;3.65;;;;;;;9.10;100.00;99183.41;6052897;23;20362;-71
2023/12/11 06:32:08;;;;;;;4.88;4.57;;;;;;;9.18;100.00;99188.94;6051537;23;20022;-71
2023/12/11 06:34:35;;;;;;;4.78;4.47;;;;;;;9.21;100.00;99184.44;6027168;23;20716;-71
2023/12/11 06:37:05;;;;;;;6.70;6.32;;;;;;;9.30;100.00;99176.75;6071386;23;20041;-71
2023/12/11 06:39:32;;;;;;;4.45;4.25;;;;;;;9.35;100.00;99145.00;6048632;23;20242;-72
2023/12/11 06:41:58;;;;;;;4.35;4.05;;;;;;;9.19;100.00;99126.94;6074670;23;20320;-71
2023/12/11 06:44:25;;;;;;;7.88;5.00;;;;;;;9.17;100.00;99128.84;6040957;23;20022;-70
2023/12/11 06:46:52;;;;;;;5.07;4.63;;;;;;;9.14;100.00;99132.53;6076063;23;20067;-71
2023/12/11 06:49:20;;;;;;;4.70;4.40;;;;;;;8.93;100.00;99082.53;6021656;23;20025;-71
2023/12/11 06:51:46;;;;;;;4.30;4.10;;;;;;;9.04;100.00;99081.78;6079820;23;20056;-73
2023/12/11 06:54:13;;;;;;;4.40;4.20;;;;;;;9.37;100.00;99102.06;6045025;23;20270;-71
2023/12/11 06:56:40;;;;;;;10.90;4.88;;;;;;;9.49;100.00;99087.22;6058316;23;20030;-71
2023/12/11 06:59:06;;;;;;;6.47;6.15;;;;;;;9.54;100.00;99055.47;6025224;23;20058;-71
2023/12/11 07:01:34;;;;;;;5.45;5.00;;;;;;;9.65;100.00;99010.16;6034613;23;20026;-71
2023/12/11 07:04:02;;;;;;;4.38;4.13;;;;;;;9.74;100.00;98991.09;6046869;23;20359;-70
2023/12/11 07:06:29;;;;;;;4.10;3.90;;;;;;;9.20;100.00;98893.06;6042857;23;20029;-72
2023/12/11 07:08:56;;;;;;;11.13;4.53;;;;;;;9.69;100.00;98975.75;6071572;23;20479;-71
2023/12/11 07:11:24;;;;;;;4.70;4.40;;;;;;;9.55;100.00;98911.31;6045785;23;20413;-71
2023/12/11 07:13:51;;;;;;;5.47;5.07;;;;;;;9.23;100.00;98827.41;6076211;23;20045;-71
2023/12/11 07:16:18;;;;;;;4.55;4.25;;;;;;;9.11;100.00;98825.72;6020608;23;20085;-71
2023/12/11 07:18:44;;;;;;;7.38;4.40;;;;;;;9.74;100.00;98925.59;6076404;23;20052;-71
2023/12/11 07:21:11;;;;;;;13.25;6.35;;;;;;;9.84;100.00;98933.59;6033769;23;20052;-71
2023/12/11 07:23:38;;;;;;;4.82;4.40;;;;;;;9.92;100.00;98928.59;6055234;23;20041;-71
2023/12/11 07:26:08;;;;;;;4.28;4.07;;;;;;;9.96;100.00;98904.66;6049167;23;20038;-72
2023/12/11 07:28:36;;;;;;;15.80;5.05;;;;;;;9.96;100.00;98914.28;6074500;23;20026;-72
2023/12/11 07:31:04;;;;;;;6.00;5.70;;;;;;;9.59;100.00;98833.34;6042259;23;20218;-72
2023/12/11 07:33:30;;;;;;;4.95;4.65;;;;;;;10.05;100.00;98912.75;6025813;23;20018;-71
2023/12/11 07:35:57;;;;;;;4.55;4.35;;;;;;;10.09;100.00;98894.03;6077890;23;20052;-70
2023/12/11 07:38:27;;;;;;;5.50;4.97;;;;;;;9.91;100.00;98879.78;6047920;23;20084;-70
2023/12/11 07:40:56;;;;;;;10.73;4.65;;;;;;;10.20;100.00;98880.06;6050621;23;20105;-72
2023/12/11 07:43:22;;;;;;;6.20;5.03;;;;;;;9.99;100.00;98865.09;6036645;23;20022;-73
2023/12/11 07:45:49;;;;;;;5.75;4.28;;;;;;;9.78;100.00;98812.63;6073966;23;20084;-70
2023/12/11 07:48:16;;;;;;;7.85;4.85;;;;;;;9.49;100.00;98738.97;6049825;23;20226;-71
2023/12/11 07:50:46;;;;;;;4.47;4.07;;;;;;;10.16;100.00;98868.16;6032428;23;20088;-70
2023/12/11 07:53:12;;;;;;;6.25;5.82;;;;;;;9.66;100.00;98787.41;6040448;23;20046;-71
2023/12/11 07:55:39;;;;;;;7.45;4.40;;;;;;;9.98;100.00;98839.88;6057512;23;20449;-70
2023/12/11 07:58:06;;;;;;;4.88;4.50;;;;;;;10.23;100.00;98895.56;6018980;23;20033;-70
2023/12/11 08:00:33;;;;;;;4.88;4.65;;;;;;;9.97;100.00;98840.81;6070611;23;20022;-70
2023/12/11 08:02:59;;;;;;;5.78;5.38;;;;;;;10.30;100.00;98881.06;6051506;23;20084;-71
2023/12/11 08:05:26;;;;;;;4.68;4.47;;;;;;;10.28;100.00;98845.38;6050057;23;20021;-71
2023/12/11 08:07:52;;;;;;;5.10;4.20;;;;;;;10.29;100.00;98845.25;6028277;23;20033;-70
2023/12/11 08:10:21;;;;;;;4.25;4.00;;;;;;;10.31;100.00;98853.88;6075098;23;20018;-69
2023/12/11 08:12:51;;;;;;;4.18;3.95;;;;;;;10.34;100.00;98853.63;6028216;23;20041;-71
2023/12/11 08:15:19;;;;;;;18.05;5.10;;;;;;;10.02;100.00;98774.91;6065268;23;20149;-71
2023/12/11 08:17:47;;;;;;;7.55;5.38;;;;;;;10.08;100.00;98763.97;6047212;23;20147;-70
2023/12/11 08:20:16;;;;;;;9.68;4.80;;;;;;;10.38;100.00;98817.47;6067479;23;20110;-70
2023/12/11 08:22:44;;;;;;;4.90;4.70;;;;;;;10.48;100.00;98804.47;6021601;23;20540;-69
2023/12/11 08:25:12;;;;;;;6.88;5.53;;;;;;;10.43;100.00;98775.19;6076183;23;20022;-70
2023/12/11 08:27:41;;;;;;;19.50;5.97;;;;;;;9.97;100.00;98716.81;6048398;23;20681;-71
2023/12/11 08:30:10;;;;;;;8.35;4.60;;;;;;;10.45;100.00;98802.09;6055370;23;20030;-70
2023/12/11 08:32:38;;;;;;;12.45;4.75;;;;;;;10.38;100.00;98805.22;6029579;23;20042;-71
2023/12/11 08:35:07;;;;;;;5.93;5.53;;;;;;;10.48;100.00;98788.72;6047057;23;20021;-70
2023/12/11 08:37:34;;;;;;;5.60;4.85;;;;;;;10.60;100.00;98790.31;6050145;23;20267;-70
2023/12/11 08:40:03;;;;;;;4.18;3.97;;;;;;;10.41;100.00;98777.09;6069929;23;20091;-72
2023/12/11 08:42:32;;;;;;;17.75;5.13;;;;;;;10.47;100.00;98769.53;6053152;23;20552;-72
2023/12/11 08:45:06;;;;;;;6.78;6.07;;;;;;;9.75;100.00;98660.94;6072458;23;20105;-69
2023/12/11 08:47:33;;;;;;;4.53;4.22;;;;;;;10.56;100.00;98799.41;6050464;23;20105;-71
2023/12/11 08:50:05;;;;;;;4.18;3.95;;;;;;;10.06;100.00;98725.72;6074590;23;20447;-72
2023/12/11 08:52:31;;;;;;;5.07;4.88;;;;;;;10.13;100.00;98763.59;6048258;23;20062;-71
2023/12/11 08:54:58;;;;;;;6.93;5.38;;;;;;;10.59;100.00;98838.50;6072316;23;20037;-71
2023/12/11 08:57:24;;;;;;;4.97;4.68;;;;;;;10.63;100.00;98842.56;6045438;23;20210;-72
2023/12/11 08:59:51;;;;;;;7.05;4.15;;;;;;;10.28;100.00;98788.53;6081464;23;20024;-70
2023/12/11 09:02:17;;;;;;;8.10;4.22;;;;;;;10.54;100.00;98853.78;6052205;23;20097;-71
2023/12/11 09:04:44;;;;;;;4.15;3.90;;;;;;;10.46;100.00;98853.56;6074097;23;20010;-71
2023/12/11 09:07:10;;;;;;;5.72;5.25;;;;;;;10.57;100.00;98883.22;6051420;23;20270;-70
2023/12/11 09:09:38;;;;;;;5.88;5.13;;;;;;;10.60;100.00;98897.06;6057466;23;20620;-71
2023/12/11 09:12:05;;;;;;;4.82;4.55;;;;;;;10.60;100.00;98894.44;6028219;23;20030;-70
2023/12/11 09:14:38;;;;;;;11.20;4.82;;;;;;;10.54;100.00;98882.63;6078731;23;20026;-69
2023/12/11 09:17:05;;;;;;;6.05;5.45;;;;;;;10.19;100.00;98849.59;6047815;23;20030;-70
2023/12/11 09:19:34;;;;;;;5.80;4.82;;;;;;;10.16;100.00;98855.91;6077766;23;20173;-70
2023/12/11 09:22:14;;;;;;;4.25;4.03;;;;;;;10.58;100.00;98926.88;6045417;23;20037;-70
2023/12/11 09:24:41;;;;;;;9.38;4.55;;;;;;;10.32;100.00;98902.75;6079062;23;20100;-71
2023/12/11 09:27:08;;;;;;;6.78;6.38;;;;;;;10.38;100.00;98965.19;6046683;23;20026;-70
2023/12/11 09:29:35;;;;;;;4.93;4.53;;;;;;;10.42;100.00;98999.84;6067236;23;20024;-69
2023/12/11 09:32:02;;;;;;;9.93;5.05;;;;;;;10.46;100.00;99026.66;6052069;23;20026;-70
2023/12/11 09:34:29;;;;;;;12.32;5.13;;;;;;;10.41;100.00;99034.06;6077950;23;20025;-71
2023/12/11 09:36:56;;;;;;;8.45;4.63;;;;;;;10.52;100.00;99057.66;6040753;23;20182;-70
2023/12/11 09:39:23;;;;;;;5.15;4.90;;;;;;;10.06;100.00;99030.56;6076767;23;20064;-71
2023/12/11 09:41:50;;;;;;;4.60;4.30;;;;;;;10.38;100.00;99108.56;6053940;23;20522;-70
2023/12/11 09:44:17;;;;;;;13.05;4.75;;;;;;;9.59;100.00;99006.19;6077185;23;20488;-70
2023/12/11 09:47:01;;;;;;;9.27;5.20;;;;;;;10.35;100.00;99161.25;6049265;23;20026;-72
2023/12/11 09:49:27;;;;;;;12.85;4.60;;;;;;;10.13;100.00;99199.53;6079822;23;20732;-71
2023/12/11 09:51:55;;;;;;;4.65;4.18;;;;;;;9.79;100.00;99214.28;6052551;23;20520;-70
2023/12/11 09:54:22;;;;;;;4.78;4.40;;;;;;;9.82;100.00;99211.44;6087960;23;20120;-71
2023/12/11 09:56:48;;;;;;;4.60;4.30;;;;;;;10.18;100.00;99289.19;6060976;23;20026;-71
2023/12/11 09:59:15;;;;;;;11.52;5.38;;;;;;;9.62;100.00;99212.88;6085523;23;20081;-69
2023/12/11 10:01:41;;;;;;;4.95;4.45;;;;;;;10.08;100.00;99306.53;6054385;23;20074;-70
2023/12/11 10:04:08;;;;;;;8.10;4.25;;;;;;;10.10;100.00;99325.59;6071707;23;20029;-71
2023/12/11 10:06:37;;;;;;;4.47;4.28;;;;;;;9.97;100.00;99309.06;6049961;23;20112;-70
2023/12/11 10:09:04;;;;;;;7.25;6.63;;;;;;;9.57;100.00;99213.22;6072954;23;20150;-71
2023/12/11 10:11:30;;;;;;;6.20;5.57;;;;;;;9.69;100.00;99229.00;6049259;23;20022;-71
2023/12/11 10:14:12;;;;;;;4.85;4.45;;;;;;;10.33;100.00;99299.50;6074539;23;20041;-70
2023/12/11 10:16:39;;;;;;;4.03;3.83;;;;;;;10.36;100.00;99279.16;6043956;23;20036;-71
2023/12/11 10:19:06;;;;;;;6.07;5.78;;;;;;;10.15;100.00;99217.78;6053434;23;20028;-71
2023/12/11 10:21:39;;;;;;;9.23;5.10;;;;;;;10.45;100.00;99261.06;6021496;23;20469;-72
2023/12/11 10:24:14;;;;;;;5.63;4.57;;;;;;;10.06;100.00;99166.03;6077446;23;20115;-70
2023/12/11 10:26:46;;;;;;;6.22;4.80;;;;;;;10.58;100.00;99238.19;6050931;23;20096;-70
2023/12/11 10:29:24;;;;;;;6.13;4.78;;;;;;;10.58;100.00;99230.31;6070978;23;20381;-69
2023/12/11 10:31:52;;;;;;;4.30;3.90;;;;;;;10.04;100.00;99141.72;6024081;23;20638;-71
2023/12/11 10:34:18;;;;;;;6.63;4.38;;;;;;;10.27;100.00;99187.19;6071971;23;20025;-70
2023/12/11 10:36:52;;;;;;;5.03;4.50;;;;;;;10.76;100.00;99267.44;6050561;23;20037;-71
2023/12/11 10:39:22;;;;;;;5.07;4.68;;;;;;;10.48;100.00;99213.59;6076469;23;20013;-70
2023/12/11 10:41:52;;;;;;;6.18;4.90;;;;;;;10.73;100.00;99221.28;6049176;23;20099;-70
2023/12/11 10:44:24;;;;;;;4.60;4.30;;;;;;;10.60;100.00;99236.28;6077987;23;20026;-70
2023/12/11 10:47:11;;;;;;;5.35;5.13;;;;;;;10.66;100.00;99306.66;6045595;23;20293;-70
2023/12/11 10:49:39;;;;;;;8.25;4.63;;;;;;;10.57;100.00;99257.50;6054815;23;20263;-73
2023/12/11 10:52:06;;;;;;;12.82;4.35;;;;;;;10.35;100.00;99229.44;6049415;23;20049;-73
2023/12/11 10:54:35;;;;;;;11.30;4.95;;;;;;;10.61;100.00;99237.97;6078796;23;20074;-72
2023/12/11 10:57:02;;;;;;;11.38;6.47;;;;;;;10.39;100.00;99220.38;6050356;23;20021;-72
2023/12/11 10:59:31;;;;;;;5.70;5.30;;;;;;;10.47;100.00;99256.53;6075632;23;20449;-71
2023/12/11 11:01:59;;;;;;;5.05;4.85;;;;;;;9.82;100.00;99185.22;6050687;23;20020;-72
2023/12/11 11:04:30;;;;;;;4.82;4.43;;;;;;;10.50;100.00;99306.97;6072586;23;20017;-70
2023/12/11 11:07:00;;;;;;;4.95;4.65;;;;;;;10.42;100.00;99305.84;6048383;23;20028;-70
2023/12/11 11:09:36;;;;;;;4.30;4.10;;;;;;;9.96;100.00;99279.41;6074815;23;20428;-71
2023/12/11 11:12:19;;;;;;;5.72;4.57;;;;;;;10.29;100.00;99342.63;6048803;23;20030;-70
2023/12/11 11:14:48;;;;;;;7.90;4.82;;;;;;;10.15;100.00;99380.31;6077943;23;20014;-71
2023/12/11 11:17:16;;;;;;;18.33;7.47;;;;;;;10.22;100.00;99418.22;6047232;23;20035;-71
2023/12/11 11:20:13;;;;;;;11.52;4.93;;;;;;;10.29;100.00;99414.25;6077097;23;20101;-70
2023/12/11 11:22:40;;;;;;;5.53;5.10;;;;;;;9.94;100.00;99315.38;6045935;23;20312;-71
2023/12/11 11:25:28;;;;;;;5.50;5.05;;;;;;;10.43;100.00;99333.78;6076271;23;20034;-70
2023/12/11 11:27:55;;;;;;;5.03;4.60;;;;;;;9.79;100.00;99222.16;6042842;23;20254;-72
2023/12/11 11:30:44;;;;;;;4.65;4.45;;;;;;;10.39;100.00;99320.03;6051828;23;20130;-73
2023/12/11 11:33:10;;;;;;;7.72;7.13;;;;;;;10.05;100.00;99316.38;6029673;23;20022;-72